NAT088 SKSM-TNCM
Flight info
| Callsign | NAT088 |
|---|---|
| Flight time | N/A |
| Altitude | 29000 |
| Route | TIGRO1C TIGRO DCT AMBAS DCT EXXIT UL335 SCAPA L335 MLIZA L204 GOUDA |
| Aircraft | BE20/L-SBGRY/S |
Departure
| Time | 2026-05-06 21:37 |
|---|---|
| Airport | Simón Bolívar International Airport (SKSM) |
Arrival
| Time | N/A |
|---|---|
| Airport | Princess Juliana International Airport (TNCM) |
| Time | Latitude | Longitude | Altitude | Speed | Heading |
|---|---|---|---|---|---|
| 2026-05-06 20:55 | 11.11883 | -74.23210 | 24 ft | 0 kts | 284° |
| 2026-05-06 21:26 | 11.11879 | -74.23189 | 24 ft | 4 kts | 268° |
| 2026-05-06 21:27 | 11.11885 | -74.23164 | 23 ft | 4 kts | 227° |
| 2026-05-06 21:27 | 11.11904 | -74.23152 | 24 ft | 1 kts | 192° |
| 2026-05-06 21:31 | 11.11902 | -74.23153 | 24 ft | 3 kts | 192° |
| 2026-05-06 21:32 | 11.11829 | -74.23165 | 23 ft | 14 kts | 181° |
| 2026-05-06 21:32 | 11.11745 | -74.23110 | 22 ft | 9 kts | 90° |
| 2026-05-06 21:32 | 11.11745 | -74.23084 | 22 ft | 0 kts | 88° |
| 2026-05-06 21:33 | 11.11736 | -74.23059 | 24 ft | 13 kts | 133° |
| 2026-05-06 21:33 | 11.11563 | -74.23055 | 24 ft | 36 kts | 179° |
| 2026-05-06 21:33 | 11.11312 | -74.23048 | 25 ft | 26 kts | 179° |
| 2026-05-06 21:33 | 11.11234 | -74.23018 | 23 ft | 14 kts | 176° |
| 2026-05-06 21:34 | 11.11251 | -74.23050 | 24 ft | 9 kts | 8° |
| 2026-05-06 21:34 | 11.11279 | -74.23048 | 23 ft | 0 kts | 356° |
| 2026-05-06 21:35 | 11.11280 | -74.23048 | 23 ft | 0 kts | 356° |
| 2026-05-06 21:36 | 11.11372 | -74.23053 | 23 ft | 40 kts | 357° |
| 2026-05-06 21:36 | 11.11468 | -74.23057 | 24 ft | 56 kts | 358° |
| 2026-05-06 21:36 | 11.12022 | -74.23063 | 29 ft | 99 kts | 355° |
| 2026-05-06 21:36 | 11.12795 | -74.23058 | 216 ft | 121 kts | 355° |
| 2026-05-06 21:37 | 11.13701 | -74.23091 | 561 ft | 134 kts | 354° |
| 2026-05-06 21:37 | 11.14621 | -74.23192 | 948 ft | 137 kts | 341° |
| 2026-05-06 21:37 | 11.15424 | -74.23756 | 1355 ft | 149 kts | 310° |
| 2026-05-06 21:37 | 11.16087 | -74.24723 | 1399 ft | 180 kts | 305° |
| 2026-05-06 21:38 | 11.16830 | -74.25808 | 1595 ft | 190 kts | 306° |
| 2026-05-06 21:38 | 11.17609 | -74.26921 | 1842 ft | 197 kts | 307° |
| 2026-05-06 21:38 | 11.18435 | -74.28065 | 2095 ft | 202 kts | 311° |
| 2026-05-06 21:38 | 11.19553 | -74.28941 | 2359 ft | 206 kts | 334° |
| 2026-05-06 21:39 | 11.20935 | -74.29326 | 2678 ft | 207 kts | 356° |
| 2026-05-06 21:39 | 11.22355 | -74.29150 | 3042 ft | 207 kts | 18° |
| 2026-05-06 21:39 | 11.23619 | -74.28460 | 3401 ft | 207 kts | 33° |
| 2026-05-06 21:39 | 11.24821 | -74.27648 | 3760 ft | 208 kts | 33° |
| 2026-05-06 21:40 | 11.26036 | -74.26831 | 4139 ft | 210 kts | 32° |
| 2026-05-06 21:40 | 11.27264 | -74.26003 | 4502 ft | 212 kts | 32° |
| 2026-05-06 21:40 | 11.28501 | -74.25169 | 4858 ft | 215 kts | 32° |
| 2026-05-06 21:40 | 11.29751 | -74.24326 | 5212 ft | 216 kts | 33° |
| 2026-05-06 21:41 | 11.30995 | -74.23486 | 5574 ft | 218 kts | 33° |
| 2026-05-06 21:41 | 11.32264 | -74.22631 | 5939 ft | 220 kts | 33° |
| 2026-05-06 21:41 | 11.33549 | -74.21763 | 6304 ft | 222 kts | 33° |
| 2026-05-06 21:41 | 11.34845 | -74.20889 | 6657 ft | 224 kts | 34° |
| 2026-05-06 21:42 | 11.36146 | -74.20011 | 7003 ft | 225 kts | 34° |
| 2026-05-06 21:42 | 11.37455 | -74.19128 | 7360 ft | 225 kts | 33° |
| 2026-05-06 21:42 | 11.38765 | -74.18243 | 7711 ft | 226 kts | 34° |
| 2026-05-06 21:42 | 11.40085 | -74.17352 | 8070 ft | 227 kts | 34° |
| 2026-05-06 21:43 | 11.41404 | -74.16462 | 8432 ft | 228 kts | 34° |
| 2026-05-06 21:43 | 11.42724 | -74.15570 | 8797 ft | 228 kts | 34° |
| 2026-05-06 21:43 | 11.44052 | -74.14674 | 9169 ft | 229 kts | 34° |
| 2026-05-06 21:43 | 11.45382 | -74.13776 | 9544 ft | 229 kts | 34° |
| 2026-05-06 21:44 | 11.46719 | -74.12873 | 9898 ft | 230 kts | 35° |
| 2026-05-06 21:44 | 11.48050 | -74.11973 | 10239 ft | 230 kts | 35° |
| 2026-05-06 21:44 | 11.49383 | -74.11073 | 10582 ft | 230 kts | 36° |
| 2026-05-06 21:44 | 11.50716 | -74.10172 | 10930 ft | 229 kts | 37° |
| 2026-05-06 21:45 | 11.52048 | -74.09272 | 11279 ft | 229 kts | 37° |
| 2026-05-06 21:45 | 11.53376 | -74.08375 | 11634 ft | 229 kts | 37° |
| 2026-05-06 21:45 | 11.54702 | -74.07480 | 11991 ft | 229 kts | 38° |
| 2026-05-06 21:45 | 11.56001 | -74.06554 | 12365 ft | 226 kts | 46° |
| 2026-05-06 21:46 | 11.56977 | -74.05323 | 12734 ft | 222 kts | 62° |
| 2026-05-06 21:46 | 11.57740 | -74.03977 | 13106 ft | 222 kts | 63° |
| 2026-05-06 21:46 | 11.58523 | -74.02614 | 13482 ft | 223 kts | 62° |
| 2026-05-06 21:46 | 11.59319 | -74.01223 | 13835 ft | 224 kts | 64° |
| 2026-05-06 21:47 | 11.60098 | -73.99863 | 14168 ft | 225 kts | 63° |
| 2026-05-06 21:47 | 11.60887 | -73.98483 | 14508 ft | 226 kts | 63° |
| 2026-05-06 21:47 | 11.61421 | -73.97548 | 14740 ft | 226 kts | 63° |
| 2026-05-06 21:47 | 11.62217 | -73.96157 | 15089 ft | 227 kts | 63° |
| 2026-05-06 21:48 | 11.63015 | -73.94764 | 15440 ft | 228 kts | 62° |
| 2026-05-06 21:48 | 11.63813 | -73.93368 | 15796 ft | 228 kts | 61° |
| 2026-05-06 21:48 | 11.64611 | -73.91971 | 16150 ft | 228 kts | 61° |
| 2026-05-06 21:48 | 11.65411 | -73.90573 | 16520 ft | 228 kts | 61° |
| 2026-05-06 21:49 | 11.66201 | -73.89190 | 16881 ft | 228 kts | 60° |
| 2026-05-06 21:49 | 11.67001 | -73.87792 | 17250 ft | 228 kts | 60° |
| 2026-05-06 21:49 | 11.67799 | -73.86395 | 17641 ft | 228 kts | 60° |
| 2026-05-06 21:49 | 11.68596 | -73.85001 | 18009 ft | 228 kts | 59° |
| 2026-05-06 21:50 | 11.69392 | -73.83605 | 18356 ft | 228 kts | 59° |
| 2026-05-06 21:50 | 11.70190 | -73.82210 | 18686 ft | 227 kts | 59° |
| 2026-05-06 21:50 | 11.70984 | -73.80820 | 19018 ft | 227 kts | 59° |
| 2026-05-06 21:50 | 11.71778 | -73.79429 | 19355 ft | 226 kts | 58° |
| 2026-05-06 21:51 | 11.72569 | -73.78044 | 19700 ft | 225 kts | 58° |
| 2026-05-06 21:51 | 11.73358 | -73.76663 | 20044 ft | 224 kts | 58° |
| 2026-05-06 21:51 | 11.74142 | -73.75289 | 20389 ft | 224 kts | 58° |
| 2026-05-06 21:51 | 11.74923 | -73.73920 | 20746 ft | 223 kts | 57° |
| 2026-05-06 21:52 | 11.75702 | -73.72555 | 21102 ft | 222 kts | 57° |
| 2026-05-06 21:52 | 11.76476 | -73.71199 | 21456 ft | 221 kts | 57° |
| 2026-05-06 21:52 | 11.77246 | -73.69848 | 21828 ft | 219 kts | 57° |
| 2026-05-06 21:52 | 11.78010 | -73.68509 | 22194 ft | 218 kts | 57° |
| 2026-05-06 21:53 | 11.78771 | -73.67175 | 22552 ft | 217 kts | 57° |
| 2026-05-06 21:53 | 11.79530 | -73.65846 | 22877 ft | 217 kts | 56° |
| 2026-05-06 21:53 | 11.80293 | -73.64508 | 23149 ft | 220 kts | 56° |
| 2026-05-06 21:53 | 11.81068 | -73.63148 | 23390 ft | 223 kts | 56° |
| 2026-05-06 21:54 | 11.81850 | -73.61776 | 23590 ft | 225 kts | 56° |
| 2026-05-06 21:54 | 11.82640 | -73.60390 | 23785 ft | 226 kts | 56° |
| 2026-05-06 21:54 | 11.83423 | -73.59014 | 23981 ft | 227 kts | 56° |
| 2026-05-06 21:54 | 11.84221 | -73.57614 | 24174 ft | 229 kts | 56° |
| 2026-05-06 21:55 | 11.85024 | -73.56206 | 24381 ft | 229 kts | 56° |
| 2026-05-06 21:55 | 11.85826 | -73.54797 | 24582 ft | 230 kts | 56° |
| 2026-05-06 21:55 | 11.86631 | -73.53383 | 24780 ft | 230 kts | 56° |
| 2026-05-06 21:55 | 11.87436 | -73.51970 | 24981 ft | 230 kts | 56° |
| 2026-05-06 21:56 | 11.88242 | -73.50554 | 25183 ft | 231 kts | 56° |
| 2026-05-06 21:56 | 11.89047 | -73.49138 | 25387 ft | 230 kts | 56° |
| 2026-05-06 21:56 | 11.89853 | -73.47724 | 25591 ft | 230 kts | 56° |
| 2026-05-06 21:56 | 11.90658 | -73.46310 | 25797 ft | 230 kts | 56° |
| 2026-05-06 21:57 | 11.91462 | -73.44897 | 26007 ft | 230 kts | 56° |
| 2026-05-06 21:57 | 11.92264 | -73.43486 | 26212 ft | 230 kts | 56° |
| 2026-05-06 21:57 | 11.93067 | -73.42075 | 26422 ft | 229 kts | 56° |
| 2026-05-06 21:57 | 11.93867 | -73.40669 | 26633 ft | 229 kts | 56° |
| 2026-05-06 21:58 | 11.94655 | -73.39283 | 26842 ft | 228 kts | 56° |
| 2026-05-06 21:58 | 11.95423 | -73.37931 | 27048 ft | 228 kts | 56° |
| 2026-05-06 21:58 | 11.96218 | -73.36534 | 27264 ft | 227 kts | 56° |
| 2026-05-06 21:58 | 11.97010 | -73.35141 | 27480 ft | 226 kts | 56° |
| 2026-05-06 21:59 | 11.97799 | -73.33752 | 27704 ft | 226 kts | 56° |
| 2026-05-06 21:59 | 11.98587 | -73.32367 | 27923 ft | 225 kts | 56° |
| 2026-05-06 21:59 | 11.99371 | -73.30986 | 28144 ft | 224 kts | 56° |
| 2026-05-06 21:59 | 12.00153 | -73.29611 | 28370 ft | 223 kts | 56° |
| 2026-05-06 22:00 | 12.00932 | -73.28239 | 28598 ft | 223 kts | 55° |
| 2026-05-06 22:00 | 12.01712 | -73.26867 | 28784 ft | 224 kts | 55° |
| 2026-05-06 22:00 | 12.02494 | -73.25490 | 28964 ft | 225 kts | 55° |
| 2026-05-06 22:00 | 12.03285 | -73.24098 | 29030 ft | 230 kts | 56° |
| 2026-05-06 22:01 | 12.04102 | -73.22659 | 29040 ft | 237 kts | 55° |
| 2026-05-06 22:01 | 12.04939 | -73.21183 | 29044 ft | 243 kts | 56° |
| 2026-05-06 22:01 | 12.05796 | -73.19672 | 29038 ft | 248 kts | 56° |
| 2026-05-06 22:01 | 12.06668 | -73.18136 | 29044 ft | 252 kts | 56° |
| 2026-05-06 22:02 | 12.07552 | -73.16578 | 29038 ft | 255 kts | 56° |
| 2026-05-06 22:02 | 12.08445 | -73.15001 | 29043 ft | 257 kts | 56° |
| 2026-05-06 22:02 | 12.09345 | -73.13414 | 29039 ft | 259 kts | 56° |
| 2026-05-06 22:02 | 12.10250 | -73.11818 | 29040 ft | 261 kts | 56° |
| 2026-05-06 22:03 | 12.11161 | -73.10210 | 29045 ft | 262 kts | 56° |
| 2026-05-06 22:03 | 12.12076 | -73.08598 | 29044 ft | 262 kts | 56° |
| 2026-05-06 22:03 | 12.12993 | -73.06979 | 29043 ft | 263 kts | 56° |
| 2026-05-06 22:03 | 12.13911 | -73.05358 | 29039 ft | 264 kts | 56° |
| 2026-05-06 22:04 | 12.14823 | -73.03749 | 29043 ft | 264 kts | 57° |
| 2026-05-06 22:04 | 12.15743 | -73.02124 | 29043 ft | 265 kts | 56° |
| 2026-05-06 22:04 | 12.16666 | -73.00495 | 29043 ft | 265 kts | 56° |
| 2026-05-06 22:04 | 12.17590 | -72.98864 | 29043 ft | 265 kts | 56° |
| 2026-05-06 22:05 | 12.18513 | -72.97232 | 29044 ft | 265 kts | 56° |
| 2026-05-06 22:05 | 12.19449 | -72.95579 | 29041 ft | 265 kts | 56° |
| 2026-05-06 22:05 | 12.20376 | -72.93943 | 29039 ft | 266 kts | 56° |
| 2026-05-06 22:05 | 12.21305 | -72.92301 | 29039 ft | 267 kts | 56° |
| 2026-05-06 22:06 | 12.22221 | -72.90682 | 29040 ft | 267 kts | 56° |
| 2026-05-06 22:06 | 12.23152 | -72.89036 | 29048 ft | 267 kts | 56° |
| 2026-05-06 22:06 | 12.24081 | -72.87394 | 29049 ft | 266 kts | 56° |
| 2026-05-06 22:06 | 12.25005 | -72.85760 | 29051 ft | 265 kts | 56° |
| 2026-05-06 22:07 | 12.25926 | -72.84128 | 29049 ft | 265 kts | 56° |
| 2026-05-06 22:07 | 12.26850 | -72.82495 | 29051 ft | 265 kts | 55° |
| 2026-05-06 22:07 | 12.27771 | -72.80866 | 29051 ft | 264 kts | 56° |
| 2026-05-06 22:07 | 12.28691 | -72.79239 | 29049 ft | 264 kts | 55° |
| 2026-05-06 22:08 | 12.29608 | -72.77614 | 29048 ft | 264 kts | 55° |
| 2026-05-06 22:08 | 12.30526 | -72.75991 | 29047 ft | 263 kts | 56° |
| 2026-05-06 22:08 | 12.31445 | -72.74363 | 29047 ft | 263 kts | 56° |
| 2026-05-06 22:08 | 12.32363 | -72.72739 | 29048 ft | 264 kts | 55° |
| 2026-05-06 22:09 | 12.33282 | -72.71113 | 29045 ft | 264 kts | 56° |
| 2026-05-06 22:09 | 12.34198 | -72.69487 | 29046 ft | 264 kts | 56° |
| 2026-05-06 22:09 | 12.35114 | -72.67864 | 29053 ft | 263 kts | 55° |
| 2026-05-06 22:09 | 12.36030 | -72.66242 | 29055 ft | 264 kts | 56° |
| 2026-05-06 22:10 | 12.36936 | -72.64636 | 29056 ft | 264 kts | 55° |
| 2026-05-06 22:10 | 12.37865 | -72.62990 | 29057 ft | 263 kts | 55° |
| 2026-05-06 22:10 | 12.38779 | -72.61367 | 29056 ft | 264 kts | 56° |
| 2026-05-06 22:10 | 12.39687 | -72.59760 | 29054 ft | 264 kts | 56° |
| 2026-05-06 22:11 | 12.40606 | -72.58131 | 29052 ft | 265 kts | 56° |
| 2026-05-06 22:11 | 12.41526 | -72.56497 | 29052 ft | 265 kts | 56° |
| 2026-05-06 22:11 | 12.42450 | -72.54859 | 29053 ft | 266 kts | 56° |
| 2026-05-06 22:11 | 12.43372 | -72.53220 | 29054 ft | 266 kts | 56° |
| 2026-05-06 22:12 | 12.44297 | -72.51578 | 29055 ft | 266 kts | 55° |
| 2026-05-06 22:12 | 12.45223 | -72.49936 | 29057 ft | 266 kts | 56° |
| 2026-05-06 22:12 | 12.46150 | -72.48290 | 29056 ft | 267 kts | 56° |
| 2026-05-06 22:12 | 12.47078 | -72.46643 | 29058 ft | 267 kts | 56° |
| 2026-05-06 22:13 | 12.48006 | -72.44994 | 29063 ft | 267 kts | 55° |
| 2026-05-06 22:13 | 12.48934 | -72.43345 | 29062 ft | 267 kts | 56° |
| 2026-05-06 22:13 | 12.49861 | -72.41699 | 29064 ft | 267 kts | 56° |
| 2026-05-06 22:13 | 12.50788 | -72.40051 | 29063 ft | 267 kts | 56° |
| 2026-05-06 22:14 | 12.51716 | -72.38400 | 29061 ft | 267 kts | 56° |
| 2026-05-06 22:14 | 12.52645 | -72.36751 | 29062 ft | 267 kts | 56° |
| 2026-05-06 22:14 | 12.53571 | -72.35104 | 29062 ft | 267 kts | 56° |
| 2026-05-06 22:14 | 12.54499 | -72.33453 | 29058 ft | 268 kts | 55° |
| 2026-05-06 22:15 | 12.55417 | -72.31821 | 29058 ft | 268 kts | 56° |
| 2026-05-06 22:15 | 12.56348 | -72.30166 | 29058 ft | 268 kts | 56° |
| 2026-05-06 22:15 | 12.57277 | -72.28509 | 29060 ft | 268 kts | 55° |
| 2026-05-06 22:15 | 12.58208 | -72.26855 | 29060 ft | 268 kts | 55° |
| 2026-05-06 22:16 | 12.59151 | -72.25175 | 29067 ft | 268 kts | 55° |
| 2026-05-06 22:16 | 12.60080 | -72.23520 | 29070 ft | 268 kts | 55° |
| 2026-05-06 22:16 | 12.61010 | -72.21866 | 29069 ft | 268 kts | 56° |
| 2026-05-06 22:16 | 12.61941 | -72.20208 | 29069 ft | 268 kts | 56° |
| 2026-05-06 22:17 | 12.62873 | -72.18548 | 29067 ft | 268 kts | 56° |
| 2026-05-06 22:17 | 12.63802 | -72.16892 | 29066 ft | 269 kts | 56° |
| 2026-05-06 22:17 | 12.64732 | -72.15235 | 29068 ft | 268 kts | 55° |
| 2026-05-06 22:17 | 12.65665 | -72.13573 | 29068 ft | 269 kts | 56° |
| 2026-05-06 22:18 | 12.66583 | -72.11936 | 29067 ft | 269 kts | 55° |
| 2026-05-06 22:18 | 12.67515 | -72.10274 | 29069 ft | 268 kts | 55° |
| 2026-05-06 22:18 | 12.68445 | -72.08618 | 29066 ft | 268 kts | 56° |
| 2026-05-06 22:18 | 12.69374 | -72.06959 | 29066 ft | 269 kts | 56° |
| 2026-05-06 22:19 | 12.70307 | -72.05294 | 29069 ft | 269 kts | 55° |
| 2026-05-06 22:19 | 12.71236 | -72.03637 | 29068 ft | 269 kts | 56° |
| 2026-05-06 22:19 | 12.72168 | -72.01974 | 29071 ft | 269 kts | 56° |
| 2026-05-06 22:19 | 12.73099 | -72.00313 | 29072 ft | 269 kts | 56° |
| 2026-05-06 22:20 | 12.74028 | -71.98653 | 29071 ft | 269 kts | 56° |
| 2026-05-06 22:20 | 12.74958 | -71.96993 | 29073 ft | 268 kts | 55° |
| 2026-05-06 22:20 | 12.75888 | -71.95333 | 29073 ft | 268 kts | 55° |
| 2026-05-06 22:20 | 12.76818 | -71.93672 | 29072 ft | 269 kts | 56° |
| 2026-05-06 22:21 | 12.77749 | -71.92009 | 29074 ft | 268 kts | 55° |
| 2026-05-06 22:21 | 12.78679 | -71.90348 | 29069 ft | 269 kts | 56° |
| 2026-05-06 22:21 | 12.79608 | -71.88686 | 29069 ft | 268 kts | 55° |
| 2026-05-06 22:21 | 12.80535 | -71.87029 | 29070 ft | 268 kts | 56° |
| 2026-05-06 22:22 | 12.81450 | -71.85395 | 29069 ft | 268 kts | 56° |
| 2026-05-06 22:22 | 12.82487 | -71.83826 | 29070 ft | 264 kts | 49° |
| 2026-05-06 22:22 | 12.83576 | -71.82302 | 29071 ft | 265 kts | 49° |
| 2026-05-06 22:22 | 12.84659 | -71.80774 | 29078 ft | 265 kts | 49° |
| 2026-05-06 22:23 | 12.85742 | -71.79238 | 29079 ft | 265 kts | 49° |
| 2026-05-06 22:23 | 12.86826 | -71.77701 | 29079 ft | 266 kts | 50° |
| 2026-05-06 22:23 | 12.87910 | -71.76165 | 29080 ft | 266 kts | 50° |
| 2026-05-06 22:23 | 12.88997 | -71.74625 | 29077 ft | 267 kts | 50° |
| 2026-05-06 22:24 | 12.90085 | -71.73085 | 29076 ft | 267 kts | 50° |
| 2026-05-06 22:24 | 12.91172 | -71.71543 | 29077 ft | 267 kts | 49° |
| 2026-05-06 22:24 | 12.92260 | -71.70001 | 29078 ft | 267 kts | 49° |
| 2026-05-06 22:24 | 12.93346 | -71.68461 | 29078 ft | 267 kts | 49° |
| 2026-05-06 22:25 | 12.94436 | -71.66916 | 29080 ft | 267 kts | 49° |
| 2026-05-06 22:25 | 12.95522 | -71.65377 | 29076 ft | 267 kts | 50° |
| 2026-05-06 22:25 | 12.96243 | -71.64354 | 29076 ft | 267 kts | 49° |
| 2026-05-06 22:25 | 12.97330 | -71.62811 | 29082 ft | 267 kts | 50° |
| 2026-05-06 22:26 | 12.98416 | -71.61270 | 29083 ft | 267 kts | 50° |
| 2026-05-06 22:26 | 12.99509 | -71.59718 | 29083 ft | 267 kts | 50° |
| 2026-05-06 22:26 | 13.00599 | -71.58173 | 29085 ft | 267 kts | 50° |
| 2026-05-06 22:26 | 13.01687 | -71.56629 | 29084 ft | 267 kts | 50° |
| 2026-05-06 22:27 | 13.02778 | -71.55080 | 29085 ft | 267 kts | 49° |
| 2026-05-06 22:27 | 13.03866 | -71.53534 | 29086 ft | 267 kts | 50° |
| 2026-05-06 22:27 | 13.04952 | -71.51989 | 29085 ft | 267 kts | 49° |
| 2026-05-06 22:27 | 13.06041 | -71.50443 | 29086 ft | 267 kts | 49° |
| 2026-05-06 22:28 | 13.07133 | -71.48895 | 29086 ft | 267 kts | 50° |
| 2026-05-06 22:28 | 13.08219 | -71.47349 | 29085 ft | 267 kts | 49° |
| 2026-05-06 22:28 | 13.09310 | -71.45799 | 29087 ft | 267 kts | 50° |
| 2026-05-06 22:28 | 13.10396 | -71.44255 | 29093 ft | 267 kts | 50° |
| 2026-05-06 22:29 | 13.11472 | -71.42725 | 29093 ft | 267 kts | 49° |
| 2026-05-06 22:29 | 13.12576 | -71.41157 | 29091 ft | 267 kts | 49° |
| 2026-05-06 22:29 | 13.13651 | -71.39628 | 29090 ft | 268 kts | 50° |
| 2026-05-06 22:29 | 13.14738 | -71.38080 | 29092 ft | 268 kts | 49° |
| 2026-05-06 22:30 | 13.15827 | -71.36530 | 29092 ft | 268 kts | 50° |
| 2026-05-06 22:30 | 13.16921 | -71.34976 | 29088 ft | 269 kts | 50° |
| 2026-05-06 22:30 | 13.18015 | -71.33419 | 29088 ft | 269 kts | 50° |
| 2026-05-06 22:30 | 13.19111 | -71.31857 | 29089 ft | 270 kts | 50° |
| 2026-05-06 22:31 | 13.20209 | -71.30294 | 29092 ft | 270 kts | 49° |
| 2026-05-06 22:31 | 13.21308 | -71.28730 | 29092 ft | 270 kts | 50° |
| 2026-05-06 22:31 | 13.22410 | -71.27159 | 29098 ft | 271 kts | 49° |
| 2026-05-06 22:31 | 13.23513 | -71.25589 | 29097 ft | 271 kts | 49° |
| 2026-05-06 22:32 | 13.24614 | -71.24020 | 29096 ft | 271 kts | 50° |
| 2026-05-06 22:32 | 13.25716 | -71.22448 | 29099 ft | 271 kts | 49° |
| 2026-05-06 22:32 | 13.26823 | -71.20873 | 29096 ft | 271 kts | 49° |
| 2026-05-06 22:32 | 13.27924 | -71.19302 | 29098 ft | 272 kts | 49° |
| 2026-05-06 22:33 | 13.29028 | -71.17729 | 29097 ft | 271 kts | 49° |
| 2026-05-06 22:33 | 13.30130 | -71.16156 | 29097 ft | 271 kts | 50° |
| 2026-05-06 22:33 | 13.31236 | -71.14579 | 29102 ft | 271 kts | 50° |
| 2026-05-06 22:33 | 13.32325 | -71.13027 | 29099 ft | 271 kts | 49° |
| 2026-05-06 22:34 | 13.33445 | -71.11435 | 29099 ft | 271 kts | 49° |
| 2026-05-06 22:34 | 13.34543 | -71.09888 | 29109 ft | 271 kts | 49° |
| 2026-05-06 22:34 | 13.35669 | -71.08298 | 29109 ft | 271 kts | 49° |
| 2026-05-06 22:34 | 13.36776 | -71.06729 | 29110 ft | 271 kts | 49° |
| 2026-05-06 22:35 | 13.37884 | -71.05160 | 29106 ft | 271 kts | 50° |
| 2026-05-06 22:35 | 13.38979 | -71.03611 | 29106 ft | 271 kts | 49° |
| 2026-05-06 22:35 | 13.40088 | -71.02039 | 29105 ft | 271 kts | 49° |
| 2026-05-06 22:35 | 13.41197 | -71.00468 | 29110 ft | 272 kts | 49° |
| 2026-05-06 22:36 | 13.42306 | -70.98896 | 29111 ft | 272 kts | 49° |
| 2026-05-06 22:36 | 13.43414 | -70.97326 | 29111 ft | 272 kts | 49° |
| 2026-05-06 22:36 | 13.44526 | -70.95751 | 29111 ft | 272 kts | 49° |
| 2026-05-06 22:36 | 13.45634 | -70.94180 | 29113 ft | 272 kts | 50° |
| 2026-05-06 22:37 | 13.46743 | -70.92609 | 29115 ft | 272 kts | 50° |
| 2026-05-06 22:37 | 13.47854 | -70.91034 | 29111 ft | 272 kts | 49° |
| 2026-05-06 22:37 | 13.48967 | -70.89455 | 29110 ft | 272 kts | 50° |
| 2026-05-06 22:37 | 13.50081 | -70.87875 | 29114 ft | 273 kts | 49° |
| 2026-05-06 22:38 | 13.51196 | -70.86292 | 29116 ft | 273 kts | 49° |
| 2026-05-06 22:38 | 13.52299 | -70.84728 | 29116 ft | 274 kts | 49° |
| 2026-05-06 22:38 | 13.53418 | -70.83140 | 29116 ft | 274 kts | 49° |
| 2026-05-06 22:38 | 13.54538 | -70.81550 | 29117 ft | 275 kts | 50° |
| 2026-05-06 22:39 | 13.55659 | -70.79958 | 29118 ft | 275 kts | 50° |
| 2026-05-06 22:39 | 13.56782 | -70.78363 | 29117 ft | 275 kts | 49° |
| 2026-05-06 22:39 | 13.57904 | -70.76769 | 29118 ft | 275 kts | 49° |
| 2026-05-06 22:39 | 13.59028 | -70.75172 | 29117 ft | 276 kts | 50° |
| 2026-05-06 22:40 | 13.60152 | -70.73576 | 29118 ft | 276 kts | 49° |
| 2026-05-06 22:40 | 13.61279 | -70.71975 | 29120 ft | 276 kts | 49° |
| 2026-05-06 22:40 | 13.62402 | -70.70378 | 29119 ft | 276 kts | 50° |
| 2026-05-06 22:40 | 13.63526 | -70.68779 | 29119 ft | 276 kts | 49° |
| 2026-05-06 22:41 | 13.65777 | -70.65579 | 29120 ft | 276 kts | 49° |
| 2026-05-06 22:41 | 13.66902 | -70.63978 | 29120 ft | 276 kts | 50° |
| 2026-05-06 22:41 | 13.68027 | -70.62378 | 29120 ft | 276 kts | 50° |
| 2026-05-06 22:42 | 13.69150 | -70.60781 | 29123 ft | 276 kts | 49° |
| 2026-05-06 22:42 | 13.70276 | -70.59178 | 29123 ft | 276 kts | 49° |
| 2026-05-06 22:42 | 13.71400 | -70.57578 | 29126 ft | 276 kts | 49° |
| 2026-05-06 22:42 | 13.72526 | -70.55974 | 29126 ft | 276 kts | 49° |
| 2026-05-06 22:43 | 13.73650 | -70.54374 | 29126 ft | 276 kts | 50° |
| 2026-05-06 22:43 | 13.74774 | -70.52774 | 29126 ft | 276 kts | 49° |
| 2026-05-06 22:43 | 13.75900 | -70.51170 | 29125 ft | 276 kts | 49° |
| 2026-05-06 22:43 | 13.77024 | -70.49568 | 29124 ft | 276 kts | 49° |
| 2026-05-06 22:44 | 13.78148 | -70.47966 | 29127 ft | 276 kts | 49° |
| 2026-05-06 22:44 | 13.79273 | -70.46362 | 29130 ft | 276 kts | 49° |
| 2026-05-06 22:44 | 13.80399 | -70.44757 | 29131 ft | 276 kts | 49° |
| 2026-05-06 22:44 | 13.81510 | -70.43174 | 29130 ft | 276 kts | 49° |
| 2026-05-06 22:45 | 13.82637 | -70.41565 | 29131 ft | 277 kts | 49° |
| 2026-05-06 22:45 | 13.83762 | -70.39960 | 29134 ft | 277 kts | 49° |
| 2026-05-06 22:45 | 13.84890 | -70.38351 | 29133 ft | 277 kts | 49° |
| 2026-05-06 22:45 | 13.86016 | -70.36745 | 29134 ft | 277 kts | 49° |
| 2026-05-06 22:46 | 13.87145 | -70.35134 | 29133 ft | 277 kts | 49° |
| 2026-05-06 22:46 | 13.88270 | -70.33527 | 29134 ft | 277 kts | 49° |
| 2026-05-06 22:46 | 13.89396 | -70.31919 | 29133 ft | 277 kts | 49° |
| 2026-05-06 22:46 | 13.90522 | -70.30312 | 29135 ft | 277 kts | 49° |
| 2026-05-06 22:47 | 13.91646 | -70.28706 | 29136 ft | 277 kts | 49° |
| 2026-05-06 22:47 | 13.92773 | -70.27096 | 29137 ft | 277 kts | 49° |
| 2026-05-06 22:47 | 13.93896 | -70.25491 | 29136 ft | 277 kts | 49° |
| 2026-05-06 22:47 | 13.95023 | -70.23881 | 29136 ft | 277 kts | 49° |
| 2026-05-06 22:48 | 13.96134 | -70.22293 | 29136 ft | 277 kts | 49° |
| 2026-05-06 22:48 | 13.97259 | -70.20684 | 29136 ft | 277 kts | 49° |
| 2026-05-06 22:48 | 13.98384 | -70.19075 | 29133 ft | 277 kts | 49° |
| 2026-05-06 22:48 | 13.99511 | -70.17463 | 29133 ft | 277 kts | 49° |
| 2026-05-06 22:49 | 14.00636 | -70.15854 | 29131 ft | 277 kts | 49° |
| 2026-05-06 22:49 | 14.01762 | -70.14243 | 29131 ft | 277 kts | 49° |
| 2026-05-06 22:49 | 14.02891 | -70.12628 | 29131 ft | 277 kts | 49° |
| 2026-05-06 22:49 | 14.04013 | -70.11022 | 29131 ft | 277 kts | 49° |
| 2026-05-06 22:50 | 14.05139 | -70.09409 | 29133 ft | 277 kts | 49° |
| 2026-05-06 22:50 | 14.06264 | -70.07800 | 29137 ft | 277 kts | 50° |
| 2026-05-06 22:50 | 14.07388 | -70.06190 | 29121 ft | 277 kts | 49° |
| 2026-05-06 22:50 | 14.08514 | -70.04577 | 29126 ft | 278 kts | 50° |
| 2026-05-06 22:51 | 14.09643 | -70.02959 | 29123 ft | 278 kts | 49° |
| 2026-05-06 22:51 | 14.10775 | -70.01337 | 29123 ft | 279 kts | 50° |
| 2026-05-06 22:51 | 14.11908 | -69.99712 | 29124 ft | 279 kts | 50° |
| 2026-05-06 22:51 | 14.13043 | -69.98086 | 29125 ft | 280 kts | 49° |
| 2026-05-06 22:52 | 14.14177 | -69.96459 | 29127 ft | 280 kts | 50° |
| 2026-05-06 22:52 | 14.15313 | -69.94830 | 29128 ft | 280 kts | 49° |
| 2026-05-06 22:52 | 14.16447 | -69.93203 | 29129 ft | 280 kts | 50° |
| 2026-05-06 22:52 | 14.17586 | -69.91569 | 29131 ft | 280 kts | 50° |
| 2026-05-06 22:53 | 14.18723 | -69.89938 | 29127 ft | 280 kts | 50° |
| 2026-05-06 22:53 | 14.19862 | -69.88303 | 29130 ft | 280 kts | 50° |
| 2026-05-06 22:53 | 14.21000 | -69.86670 | 29130 ft | 280 kts | 49° |
| 2026-05-06 22:53 | 14.22136 | -69.85038 | 29132 ft | 281 kts | 50° |
| 2026-05-06 22:54 | 14.23265 | -69.83416 | 29132 ft | 281 kts | 50° |
| 2026-05-06 22:54 | 14.24405 | -69.81780 | 29132 ft | 281 kts | 50° |
| 2026-05-06 22:54 | 14.25546 | -69.80140 | 29132 ft | 281 kts | 50° |
| 2026-05-06 22:54 | 14.26689 | -69.78498 | 29136 ft | 282 kts | 50° |
| 2026-05-06 22:55 | 14.27830 | -69.76857 | 29140 ft | 282 kts | 50° |
| 2026-05-06 22:55 | 14.28974 | -69.75213 | 29139 ft | 282 kts | 50° |
| 2026-05-06 22:55 | 14.30116 | -69.73570 | 29141 ft | 282 kts | 50° |
| 2026-05-06 22:55 | 14.31260 | -69.71925 | 29140 ft | 282 kts | 50° |
| 2026-05-06 22:56 | 14.32404 | -69.70280 | 29142 ft | 282 kts | 50° |
| 2026-05-06 22:56 | 14.33545 | -69.68639 | 29143 ft | 282 kts | 50° |
| 2026-05-06 22:56 | 14.34689 | -69.66992 | 29142 ft | 282 kts | 50° |
| 2026-05-06 22:56 | 14.35831 | -69.65349 | 29143 ft | 282 kts | 50° |
| 2026-05-06 22:57 | 14.36975 | -69.63702 | 29142 ft | 282 kts | 50° |
| 2026-05-06 22:57 | 14.38117 | -69.62057 | 29151 ft | 282 kts | 50° |
| 2026-05-06 22:57 | 14.39262 | -69.60408 | 29152 ft | 282 kts | 50° |
| 2026-05-06 22:57 | 14.40407 | -69.58759 | 29152 ft | 282 kts | 50° |
| 2026-05-06 22:58 | 14.41550 | -69.57112 | 29152 ft | 282 kts | 50° |
| 2026-05-06 22:58 | 14.42694 | -69.55464 | 29152 ft | 282 kts | 50° |
| 2026-05-06 22:58 | 14.43825 | -69.53834 | 29152 ft | 283 kts | 50° |
| 2026-05-06 22:58 | 14.44968 | -69.52186 | 29151 ft | 283 kts | 50° |
| 2026-05-06 22:59 | 14.46117 | -69.50530 | 29152 ft | 283 kts | 50° |
| 2026-05-06 22:59 | 14.47263 | -69.48877 | 29152 ft | 283 kts | 50° |
| 2026-05-06 22:59 | 14.48411 | -69.47221 | 29152 ft | 283 kts | 50° |
| 2026-05-06 22:59 | 14.49557 | -69.45567 | 29153 ft | 283 kts | 50° |
| 2026-05-06 23:00 | 14.50706 | -69.43909 | 29152 ft | 284 kts | 50° |
| 2026-05-06 23:00 | 14.51853 | -69.42253 | 29152 ft | 284 kts | 50° |
| 2026-05-06 23:00 | 14.53001 | -69.40596 | 29153 ft | 284 kts | 50° |
| 2026-05-06 23:00 | 14.54152 | -69.38934 | 29150 ft | 284 kts | 50° |
| 2026-05-06 23:01 | 14.55285 | -69.37297 | 29156 ft | 284 kts | 50° |
| 2026-05-06 23:01 | 14.56433 | -69.35640 | 29156 ft | 284 kts | 50° |
| 2026-05-06 23:01 | 14.57581 | -69.33980 | 29156 ft | 284 kts | 50° |
| 2026-05-06 23:01 | 14.58732 | -69.32317 | 29156 ft | 284 kts | 50° |
| 2026-05-06 23:02 | 14.59880 | -69.30658 | 29156 ft | 284 kts | 50° |
| 2026-05-06 23:02 | 14.61029 | -69.28996 | 29156 ft | 284 kts | 50° |
| 2026-05-06 23:02 | 14.62180 | -69.27333 | 29156 ft | 284 kts | 50° |
| 2026-05-06 23:02 | 14.63325 | -69.25677 | 29156 ft | 284 kts | 50° |
| 2026-05-06 23:03 | 14.64088 | -69.24573 | 29156 ft | 284 kts | 50° |
| 2026-05-06 23:03 | 14.65236 | -69.22912 | 29157 ft | 284 kts | 50° |
| 2026-05-06 23:03 | 14.66756 | -69.20712 | 29157 ft | 284 kts | 50° |
| 2026-05-06 23:03 | 14.67905 | -69.19048 | 29157 ft | 284 kts | 50° |
| 2026-05-06 23:04 | 14.68684 | -69.17922 | 29157 ft | 284 kts | 50° |
| 2026-05-06 23:04 | 14.69835 | -69.16255 | 29157 ft | 285 kts | 50° |
| 2026-05-06 23:04 | 14.70983 | -69.14591 | 29157 ft | 285 kts | 50° |
| 2026-05-06 23:04 | 14.72135 | -69.12922 | 29157 ft | 285 kts | 50° |
| 2026-05-06 23:05 | 14.73286 | -69.11254 | 29160 ft | 285 kts | 50° |
| 2026-05-06 23:05 | 14.74437 | -69.09586 | 29161 ft | 285 kts | 50° |
| 2026-05-06 23:05 | 14.75590 | -69.07916 | 29161 ft | 285 kts | 50° |
| 2026-05-06 23:05 | 14.76739 | -69.06250 | 29161 ft | 285 kts | 50° |
| 2026-05-06 23:06 | 14.77889 | -69.04582 | 29164 ft | 285 kts | 50° |
| 2026-05-06 23:06 | 14.79042 | -69.02909 | 29164 ft | 285 kts | 50° |
| 2026-05-06 23:06 | 14.80191 | -69.01241 | 29164 ft | 285 kts | 50° |
| 2026-05-06 23:06 | 14.81328 | -68.99592 | 29164 ft | 285 kts | 50° |
| 2026-05-06 23:07 | 14.82480 | -68.97921 | 29170 ft | 285 kts | 50° |
| 2026-05-06 23:07 | 14.83631 | -68.96250 | 29170 ft | 285 kts | 50° |
| 2026-05-06 23:07 | 14.84782 | -68.94579 | 29170 ft | 285 kts | 50° |
| 2026-05-06 23:07 | 14.85932 | -68.92908 | 29170 ft | 285 kts | 50° |
| 2026-05-06 23:08 | 14.87084 | -68.91234 | 29167 ft | 285 kts | 50° |
| 2026-05-06 23:08 | 14.88235 | -68.89562 | 29166 ft | 285 kts | 50° |
| 2026-05-06 23:08 | 14.89385 | -68.87891 | 29166 ft | 285 kts | 50° |
| 2026-05-06 23:08 | 14.90536 | -68.86218 | 29166 ft | 285 kts | 50° |
| 2026-05-06 23:09 | 14.91687 | -68.84545 | 29169 ft | 285 kts | 50° |
| 2026-05-06 23:09 | 14.92840 | -68.82868 | 29169 ft | 285 kts | 50° |
| 2026-05-06 23:09 | 14.93978 | -68.81212 | 29169 ft | 286 kts | 50° |
| 2026-05-06 23:09 | 14.95128 | -68.79540 | 29169 ft | 286 kts | 50° |
| 2026-05-06 23:10 | 14.96278 | -68.77866 | 29175 ft | 286 kts | 50° |
| 2026-05-06 23:10 | 14.97431 | -68.76189 | 29166 ft | 286 kts | 50° |
| 2026-05-06 23:10 | 14.98584 | -68.74509 | 29165 ft | 286 kts | 50° |
| 2026-05-06 23:10 | 14.99737 | -68.72830 | 29165 ft | 286 kts | 50° |
| 2026-05-06 23:11 | 15.00891 | -68.71151 | 29171 ft | 287 kts | 50° |
| 2026-05-06 23:11 | 15.02047 | -68.69466 | 29174 ft | 287 kts | 50° |
| 2026-05-06 23:11 | 15.03200 | -68.67787 | 29175 ft | 287 kts | 50° |
| 2026-05-06 23:11 | 15.04356 | -68.66102 | 29173 ft | 287 kts | 50° |
| 2026-05-06 23:12 | 15.05511 | -68.64418 | 29172 ft | 287 kts | 50° |
| 2026-05-06 23:12 | 15.06665 | -68.62736 | 29171 ft | 287 kts | 50° |
| 2026-05-06 23:12 | 15.07819 | -68.61052 | 29176 ft | 287 kts | 50° |
| 2026-05-06 23:12 | 15.08974 | -68.59369 | 29178 ft | 287 kts | 50° |
| 2026-05-06 23:13 | 15.10129 | -68.57683 | 29174 ft | 287 kts | 50° |
| 2026-05-06 23:13 | 15.11282 | -68.56001 | 29171 ft | 287 kts | 50° |
| 2026-05-06 23:13 | 15.12434 | -68.54320 | 29174 ft | 287 kts | 50° |
| 2026-05-06 23:13 | 15.13588 | -68.52635 | 29174 ft | 287 kts | 50° |
| 2026-05-06 23:14 | 15.14741 | -68.50951 | 29171 ft | 287 kts | 50° |
| 2026-05-06 23:14 | 15.15896 | -68.49265 | 29172 ft | 287 kts | 50° |
| 2026-05-06 23:14 | 15.17053 | -68.47575 | 29180 ft | 287 kts | 50° |
| 2026-05-06 23:14 | 15.18209 | -68.45886 | 29181 ft | 287 kts | 50° |
| 2026-05-06 23:15 | 15.19364 | -68.44197 | 29172 ft | 287 kts | 50° |
| 2026-05-06 23:15 | 15.20507 | -68.42528 | 29178 ft | 287 kts | 50° |
| 2026-05-06 23:15 | 15.21663 | -68.40837 | 29173 ft | 287 kts | 50° |
| 2026-05-06 23:15 | 15.22817 | -68.39149 | 29177 ft | 287 kts | 50° |
| 2026-05-06 23:16 | 15.23973 | -68.37458 | 29179 ft | 287 kts | 50° |
| 2026-05-06 23:16 | 15.25128 | -68.35768 | 29177 ft | 287 kts | 50° |
| 2026-05-06 23:16 | 15.26285 | -68.34075 | 29184 ft | 288 kts | 50° |
| 2026-05-06 23:16 | 15.27440 | -68.32385 | 29180 ft | 288 kts | 50° |
| 2026-05-06 23:17 | 15.28598 | -68.30690 | 29183 ft | 288 kts | 50° |
| 2026-05-06 23:17 | 15.29758 | -68.28992 | 29186 ft | 288 kts | 50° |
| 2026-05-06 23:17 | 15.30913 | -68.27300 | 29184 ft | 288 kts | 50° |
| 2026-05-06 23:17 | 15.32070 | -68.25605 | 29181 ft | 288 kts | 50° |
| 2026-05-06 23:18 | 15.33225 | -68.23912 | 29181 ft | 288 kts | 50° |
| 2026-05-06 23:18 | 15.34382 | -68.22216 | 29176 ft | 288 kts | 50° |
| 2026-05-06 23:18 | 15.35539 | -68.20520 | 29179 ft | 288 kts | 50° |
| 2026-05-06 23:18 | 15.36696 | -68.18825 | 29180 ft | 288 kts | 50° |
| 2026-05-06 23:19 | 15.37853 | -68.17128 | 29179 ft | 288 kts | 50° |
| 2026-05-06 23:19 | 15.39010 | -68.15431 | 29177 ft | 288 kts | 50° |
| 2026-05-06 23:19 | 15.40169 | -68.13729 | 29180 ft | 288 kts | 50° |
| 2026-05-06 23:19 | 15.41325 | -68.12033 | 29178 ft | 289 kts | 50° |
| 2026-05-06 23:20 | 15.42484 | -68.10332 | 29185 ft | 289 kts | 50° |
| 2026-05-06 23:20 | 15.43643 | -68.08631 | 29182 ft | 289 kts | 50° |
| 2026-05-06 23:20 | 15.44800 | -68.06932 | 29182 ft | 289 kts | 50° |
| 2026-05-06 23:20 | 15.45959 | -68.05229 | 29180 ft | 289 kts | 50° |
| 2026-05-06 23:21 | 15.47100 | -68.03552 | 29184 ft | 289 kts | 50° |
| 2026-05-06 23:21 | 15.48258 | -68.01850 | 29185 ft | 289 kts | 50° |
| 2026-05-06 23:21 | 15.49416 | -68.00149 | 29182 ft | 289 kts | 50° |
| 2026-05-06 23:21 | 15.50574 | -67.98446 | 29179 ft | 289 kts | 50° |
| 2026-05-06 23:22 | 15.51735 | -67.96739 | 29190 ft | 289 kts | 50° |
| 2026-05-06 23:22 | 15.52894 | -67.95035 | 29182 ft | 289 kts | 50° |
| 2026-05-06 23:22 | 15.54050 | -67.93334 | 29188 ft | 289 kts | 50° |
| 2026-05-06 23:22 | 15.55209 | -67.91629 | 29180 ft | 289 kts | 50° |
| 2026-05-06 23:23 | 15.56368 | -67.89922 | 29181 ft | 289 kts | 50° |
| 2026-05-06 23:23 | 15.57527 | -67.88216 | 29180 ft | 289 kts | 50° |
| 2026-05-06 23:23 | 15.58687 | -67.86508 | 29181 ft | 289 kts | 50° |
| 2026-05-06 23:23 | 15.59847 | -67.84800 | 29180 ft | 289 kts | 50° |
| 2026-05-06 23:24 | 15.61007 | -67.83092 | 29181 ft | 289 kts | 50° |
| 2026-05-06 23:24 | 15.62168 | -67.81381 | 29182 ft | 289 kts | 50° |
| 2026-05-06 23:24 | 15.63327 | -67.79673 | 29184 ft | 289 kts | 50° |
| 2026-05-06 23:24 | 15.64487 | -67.77961 | 29184 ft | 289 kts | 50° |
| 2026-05-06 23:25 | 15.65644 | -67.76256 | 29183 ft | 289 kts | 50° |
| 2026-05-06 23:25 | 15.66794 | -67.74560 | 29183 ft | 289 kts | 50° |
| 2026-05-06 23:25 | 15.67952 | -67.72853 | 29184 ft | 289 kts | 50° |
| 2026-05-06 23:25 | 15.69107 | -67.71147 | 29183 ft | 289 kts | 50° |
| 2026-05-06 23:26 | 15.70270 | -67.69431 | 29184 ft | 289 kts | 50° |
| 2026-05-06 23:26 | 15.71427 | -67.67723 | 29185 ft | 289 kts | 50° |
| 2026-05-06 23:26 | 15.72585 | -67.66014 | 29185 ft | 289 kts | 50° |
| 2026-05-06 23:26 | 15.73744 | -67.64301 | 29187 ft | 289 kts | 50° |
| 2026-05-06 23:27 | 15.74904 | -67.62589 | 29190 ft | 289 kts | 50° |
| 2026-05-06 23:27 | 15.76060 | -67.60881 | 29188 ft | 289 kts | 50° |
| 2026-05-06 23:27 | 15.77219 | -67.59168 | 29192 ft | 289 kts | 50° |
| 2026-05-06 23:27 | 15.78377 | -67.57456 | 29188 ft | 289 kts | 50° |
| 2026-05-06 23:28 | 15.79534 | -67.55745 | 29198 ft | 289 kts | 50° |
| 2026-05-06 23:28 | 15.80691 | -67.54034 | 29191 ft | 289 kts | 51° |
| 2026-05-06 23:28 | 15.81849 | -67.52322 | 29187 ft | 290 kts | 51° |
| 2026-05-06 23:28 | 15.82993 | -67.50629 | 29194 ft | 290 kts | 51° |
| 2026-05-06 23:29 | 15.84104 | -67.48877 | 29189 ft | 290 kts | 53° |
| 2026-05-06 23:29 | 15.85194 | -67.47108 | 29190 ft | 290 kts | 53° |
| 2026-05-06 23:29 | 15.86294 | -67.45350 | 29189 ft | 290 kts | 53° |
| 2026-05-06 23:29 | 15.87390 | -67.43584 | 29191 ft | 291 kts | 53° |
| 2026-05-06 23:30 | 15.88481 | -67.41812 | 29197 ft | 291 kts | 53° |
| 2026-05-06 23:30 | 15.89571 | -67.40044 | 29196 ft | 291 kts | 53° |
| 2026-05-06 23:30 | 15.90665 | -67.38274 | 29196 ft | 291 kts | 53° |
| 2026-05-06 23:30 | 15.91760 | -67.36503 | 29196 ft | 291 kts | 53° |
| 2026-05-06 23:31 | 15.92854 | -67.34732 | 29197 ft | 291 kts | 53° |
| 2026-05-06 23:31 | 15.93949 | -67.32957 | 29198 ft | 291 kts | 53° |
| 2026-05-06 23:31 | 15.95045 | -67.31181 | 29198 ft | 292 kts | 53° |
| 2026-05-06 23:31 | 15.96139 | -67.29407 | 29198 ft | 292 kts | 53° |
| 2026-05-06 23:32 | 15.97235 | -67.27631 | 29198 ft | 292 kts | 53° |
| 2026-05-06 23:32 | 15.98330 | -67.25856 | 29198 ft | 292 kts | 53° |
| 2026-05-06 23:32 | 15.99426 | -67.24078 | 29197 ft | 292 kts | 53° |
| 2026-05-06 23:32 | 16.00519 | -67.22304 | 29198 ft | 292 kts | 53° |
| 2026-05-06 23:33 | 16.01602 | -67.20547 | 29201 ft | 292 kts | 53° |
| 2026-05-06 23:33 | 16.02696 | -67.18772 | 29200 ft | 292 kts | 53° |
| 2026-05-06 23:33 | 16.03793 | -67.16990 | 29201 ft | 292 kts | 53° |
| 2026-05-06 23:33 | 16.04886 | -67.15216 | 29204 ft | 292 kts | 53° |
| 2026-05-06 23:34 | 16.05985 | -67.13431 | 29204 ft | 292 kts | 53° |
| 2026-05-06 23:34 | 16.07079 | -67.11653 | 29204 ft | 292 kts | 53° |
| 2026-05-06 23:34 | 16.08173 | -67.09874 | 29204 ft | 292 kts | 53° |
| 2026-05-06 23:34 | 16.09266 | -67.08099 | 29204 ft | 292 kts | 53° |
| 2026-05-06 23:35 | 16.10364 | -67.06313 | 29202 ft | 292 kts | 53° |
| 2026-05-06 23:35 | 16.11460 | -67.04531 | 29202 ft | 292 kts | 53° |
| 2026-05-06 23:35 | 16.12555 | -67.02749 | 29202 ft | 293 kts | 53° |
| 2026-05-06 23:35 | 16.13653 | -67.00963 | 29201 ft | 293 kts | 53° |
| 2026-05-06 23:36 | 16.14749 | -66.99180 | 29205 ft | 293 kts | 53° |
| 2026-05-06 23:36 | 16.15847 | -66.97392 | 29208 ft | 293 kts | 53° |
| 2026-05-06 23:36 | 16.16945 | -66.95605 | 29207 ft | 293 kts | 53° |
| 2026-05-06 23:36 | 16.18040 | -66.93820 | 29207 ft | 293 kts | 53° |
| 2026-05-06 23:37 | 16.19138 | -66.92031 | 29204 ft | 293 kts | 53° |
| 2026-05-06 23:37 | 16.20234 | -66.90245 | 29204 ft | 293 kts | 53° |
| 2026-05-06 23:37 | 16.21331 | -66.88458 | 29203 ft | 293 kts | 53° |
| 2026-05-06 23:37 | 16.22429 | -66.86668 | 29205 ft | 293 kts | 53° |
| 2026-05-06 23:38 | 16.23523 | -66.84883 | 29204 ft | 293 kts | 53° |
| 2026-05-06 23:38 | 16.24620 | -66.83094 | 29204 ft | 293 kts | 53° |
| 2026-05-06 23:38 | 16.25703 | -66.81326 | 29204 ft | 293 kts | 53° |
| 2026-05-06 23:38 | 16.26799 | -66.79539 | 29207 ft | 293 kts | 53° |
| 2026-05-06 23:39 | 16.27895 | -66.77749 | 29207 ft | 293 kts | 54° |
| 2026-05-06 23:39 | 16.28995 | -66.75954 | 29207 ft | 293 kts | 53° |
| 2026-05-06 23:39 | 16.30090 | -66.74165 | 29207 ft | 293 kts | 54° |
| 2026-05-06 23:39 | 16.31189 | -66.72369 | 29207 ft | 293 kts | 53° |
| 2026-05-06 23:40 | 16.32286 | -66.70577 | 29207 ft | 293 kts | 54° |
| 2026-05-06 23:40 | 16.33368 | -66.68809 | 29207 ft | 293 kts | 54° |
| 2026-05-06 23:40 | 16.34463 | -66.67019 | 29208 ft | 293 kts | 54° |
| 2026-05-06 23:40 | 16.35559 | -66.65227 | 29208 ft | 293 kts | 54° |
| 2026-05-06 23:41 | 16.36655 | -66.63433 | 29210 ft | 293 kts | 54° |
| 2026-05-06 23:41 | 16.37751 | -66.61642 | 29210 ft | 294 kts | 54° |
| 2026-05-06 23:41 | 16.38492 | -66.60428 | 29209 ft | 294 kts | 54° |
| 2026-05-06 23:41 | 16.39576 | -66.58654 | 29209 ft | 294 kts | 54° |
| 2026-05-06 23:42 | 16.40674 | -66.56857 | 29213 ft | 294 kts | 54° |
| 2026-05-06 23:42 | 16.41770 | -66.55063 | 29213 ft | 294 kts | 54° |
| 2026-05-06 23:42 | 16.42867 | -66.53266 | 29213 ft | 294 kts | 54° |
| 2026-05-06 23:42 | 16.43964 | -66.51468 | 29214 ft | 294 kts | 54° |
| 2026-05-06 23:43 | 16.45061 | -66.49671 | 29216 ft | 294 kts | 54° |
| 2026-05-06 23:43 | 16.46158 | -66.47872 | 29216 ft | 294 kts | 54° |
| 2026-05-06 23:43 | 16.47253 | -66.46078 | 29216 ft | 294 kts | 54° |
| 2026-05-06 23:43 | 16.48352 | -66.44274 | 29216 ft | 294 kts | 54° |
| 2026-05-06 23:44 | 16.49450 | -66.42473 | 29216 ft | 294 kts | 54° |
| 2026-05-06 23:44 | 16.50546 | -66.40675 | 29216 ft | 294 kts | 54° |
| 2026-05-06 23:44 | 16.51642 | -66.38876 | 29216 ft | 294 kts | 54° |
| 2026-05-06 23:44 | 16.52740 | -66.37074 | 29219 ft | 294 kts | 54° |
| 2026-05-06 23:45 | 16.53835 | -66.35276 | 29216 ft | 294 kts | 54° |
| 2026-05-06 23:45 | 16.54930 | -66.33477 | 29217 ft | 294 kts | 54° |
| 2026-05-06 23:45 | 16.56012 | -66.31700 | 29217 ft | 294 kts | 54° |
| 2026-05-06 23:45 | 16.57107 | -66.29900 | 29217 ft | 294 kts | 54° |
| 2026-05-06 23:46 | 16.58203 | -66.28098 | 29217 ft | 294 kts | 54° |
| 2026-05-06 23:46 | 16.59299 | -66.26296 | 29217 ft | 294 kts | 54° |
| 2026-05-06 23:46 | 16.60394 | -66.24495 | 29217 ft | 294 kts | 54° |
| 2026-05-06 23:46 | 16.61490 | -66.22693 | 29216 ft | 294 kts | 54° |
| 2026-05-06 23:47 | 16.62585 | -66.20891 | 29213 ft | 294 kts | 54° |
| 2026-05-06 23:47 | 16.63679 | -66.19090 | 29213 ft | 294 kts | 54° |
| 2026-05-06 23:47 | 16.64774 | -66.17287 | 29212 ft | 294 kts | 54° |
| 2026-05-06 23:47 | 16.65868 | -66.15486 | 29213 ft | 294 kts | 54° |
| 2026-05-06 23:48 | 16.66963 | -66.13682 | 29216 ft | 294 kts | 54° |
| 2026-05-06 23:48 | 16.68056 | -66.11881 | 29216 ft | 294 kts | 54° |
| 2026-05-06 23:48 | 16.69150 | -66.10079 | 29216 ft | 294 kts | 54° |
| 2026-05-06 23:48 | 16.70246 | -66.08273 | 29219 ft | 294 kts | 54° |
| 2026-05-06 23:49 | 16.71338 | -66.06471 | 29219 ft | 294 kts | 54° |
| 2026-05-06 23:49 | 16.72430 | -66.04670 | 29219 ft | 294 kts | 54° |
| 2026-05-06 23:49 | 16.73525 | -66.02864 | 29219 ft | 294 kts | 54° |
| 2026-05-06 23:49 | 16.74620 | -66.01057 | 29219 ft | 294 kts | 54° |
| 2026-05-06 23:50 | 16.75712 | -65.99255 | 29218 ft | 294 kts | 54° |
| 2026-05-06 23:50 | 16.77902 | -65.95639 | 29218 ft | 294 kts | 54° |
| 2026-05-06 23:50 | 16.78994 | -65.93835 | 29219 ft | 294 kts | 54° |
| 2026-05-06 23:51 | 16.80088 | -65.92028 | 29225 ft | 294 kts | 54° |
| 2026-05-06 23:51 | 16.81183 | -65.90218 | 29225 ft | 294 kts | 54° |
| 2026-05-06 23:51 | 16.82280 | -65.88405 | 29225 ft | 294 kts | 54° |
| 2026-05-06 23:51 | 16.83373 | -65.86597 | 29225 ft | 294 kts | 54° |
| 2026-05-06 23:52 | 16.84467 | -65.84789 | 29222 ft | 294 kts | 54° |
| 2026-05-06 23:52 | 16.85560 | -65.82980 | 29222 ft | 294 kts | 54° |
| 2026-05-06 23:52 | 16.86654 | -65.81170 | 29222 ft | 294 kts | 54° |
| 2026-05-06 23:52 | 16.87746 | -65.79362 | 29222 ft | 294 kts | 54° |
| 2026-05-06 23:53 | 16.88837 | -65.77555 | 29225 ft | 294 kts | 54° |
| 2026-05-06 23:53 | 16.89933 | -65.75740 | 29225 ft | 295 kts | 54° |
| 2026-05-06 23:53 | 16.91025 | -65.73931 | 29228 ft | 295 kts | 54° |
| 2026-05-06 23:53 | 16.92119 | -65.72119 | 29228 ft | 295 kts | 54° |
| 2026-05-06 23:54 | 16.93212 | -65.70307 | 29225 ft | 295 kts | 54° |
| 2026-05-06 23:54 | 16.94305 | -65.68496 | 29225 ft | 295 kts | 54° |
| 2026-05-06 23:54 | 16.95397 | -65.66684 | 29225 ft | 295 kts | 54° |
| 2026-05-06 23:54 | 16.96491 | -65.64869 | 29225 ft | 295 kts | 54° |
| 2026-05-06 23:55 | 16.97583 | -65.63058 | 29226 ft | 295 kts | 54° |
| 2026-05-06 23:55 | 16.98678 | -65.61241 | 29226 ft | 295 kts | 55° |
| 2026-05-06 23:55 | 16.99771 | -65.59427 | 29226 ft | 295 kts | 55° |
| 2026-05-06 23:55 | 17.00850 | -65.57634 | 29226 ft | 295 kts | 55° |
| 2026-05-06 23:56 | 17.01957 | -65.55795 | 29229 ft | 295 kts | 55° |
| 2026-05-06 23:56 | 17.03050 | -65.53981 | 29229 ft | 295 kts | 55° |
| 2026-05-06 23:56 | 17.04128 | -65.52189 | 29229 ft | 295 kts | 55° |
| 2026-05-06 23:56 | 17.05221 | -65.50372 | 29229 ft | 295 kts | 55° |
| 2026-05-06 23:57 | 17.06328 | -65.48532 | 29226 ft | 295 kts | 55° |
| 2026-05-06 23:57 | 17.07405 | -65.46740 | 29226 ft | 295 kts | 55° |
| 2026-05-06 23:57 | 17.08499 | -65.44920 | 29226 ft | 295 kts | 55° |
| 2026-05-06 23:57 | 17.09590 | -65.43104 | 29226 ft | 295 kts | 55° |
| 2026-05-06 23:58 | 17.10683 | -65.41285 | 29229 ft | 295 kts | 55° |
| 2026-05-06 23:58 | 17.11777 | -65.39464 | 29232 ft | 295 kts | 55° |
| 2026-05-06 23:58 | 17.12869 | -65.37647 | 29232 ft | 295 kts | 55° |
| 2026-05-06 23:58 | 17.13961 | -65.35827 | 29232 ft | 295 kts | 55° |
| 2026-05-06 23:59 | 17.15054 | -65.34005 | 29232 ft | 295 kts | 55° |
| 2026-05-06 23:59 | 17.16144 | -65.32188 | 29232 ft | 295 kts | 55° |
| 2026-05-06 23:59 | 17.17238 | -65.30366 | 29226 ft | 296 kts | 55° |
| 2026-05-06 23:59 | 17.18330 | -65.28545 | 29228 ft | 296 kts | 55° |
| 2026-05-07 00:00 | 17.19422 | -65.26723 | 29227 ft | 296 kts | 55° |
| 2026-05-07 00:00 | 17.20517 | -65.24895 | 29226 ft | 296 kts | 55° |
| 2026-05-07 00:00 | 17.21609 | -65.23073 | 29225 ft | 296 kts | 55° |
| 2026-05-07 00:00 | 17.22702 | -65.21249 | 29223 ft | 296 kts | 55° |
| 2026-05-07 00:01 | 17.23795 | -65.19423 | 29223 ft | 296 kts | 55° |
| 2026-05-07 00:01 | 17.24889 | -65.17597 | 29222 ft | 296 kts | 55° |
| 2026-05-07 00:01 | 17.25982 | -65.15770 | 29222 ft | 296 kts | 55° |
| 2026-05-07 00:01 | 17.27074 | -65.13945 | 29222 ft | 296 kts | 55° |
| 2026-05-07 00:02 | 17.28169 | -65.12116 | 29222 ft | 296 kts | 55° |
| 2026-05-07 00:02 | 17.29262 | -65.10288 | 29224 ft | 296 kts | 55° |
| 2026-05-07 00:02 | 17.30354 | -65.08462 | 29224 ft | 296 kts | 55° |
| 2026-05-07 00:02 | 17.31433 | -65.06657 | 29224 ft | 296 kts | 55° |
| 2026-05-07 00:03 | 17.32523 | -65.04832 | 29224 ft | 296 kts | 55° |
| 2026-05-07 00:03 | 17.33615 | -65.03004 | 29224 ft | 296 kts | 55° |
| 2026-05-07 00:03 | 17.34708 | -65.01174 | 29224 ft | 296 kts | 55° |
| 2026-05-07 00:03 | 17.35798 | -64.99349 | 29224 ft | 296 kts | 55° |
| 2026-05-07 00:04 | 17.36890 | -64.97520 | 29231 ft | 296 kts | 55° |
| 2026-05-07 00:04 | 17.37979 | -64.95695 | 29228 ft | 296 kts | 55° |
| 2026-05-07 00:04 | 17.39070 | -64.93866 | 29228 ft | 296 kts | 55° |
| 2026-05-07 00:04 | 17.40157 | -64.92044 | 29228 ft | 295 kts | 55° |
| 2026-05-07 00:05 | 17.41245 | -64.90219 | 29232 ft | 295 kts | 55° |
| 2026-05-07 00:05 | 17.42333 | -64.88394 | 29231 ft | 295 kts | 55° |
| 2026-05-07 00:05 | 17.43423 | -64.86565 | 29238 ft | 295 kts | 55° |
| 2026-05-07 00:05 | 17.44512 | -64.84737 | 29238 ft | 296 kts | 55° |
| 2026-05-07 00:06 | 17.45600 | -64.82910 | 29238 ft | 296 kts | 56° |
| 2026-05-07 00:06 | 17.46689 | -64.81083 | 29238 ft | 296 kts | 56° |
| 2026-05-07 00:06 | 17.47780 | -64.79250 | 29238 ft | 296 kts | 56° |
| 2026-05-07 00:06 | 17.48871 | -64.77417 | 29239 ft | 296 kts | 56° |
| 2026-05-07 00:07 | 17.49962 | -64.75584 | 29235 ft | 296 kts | 55° |
| 2026-05-07 00:07 | 17.51052 | -64.73751 | 29235 ft | 296 kts | 56° |
| 2026-05-07 00:07 | 17.52141 | -64.71920 | 29236 ft | 296 kts | 56° |
| 2026-05-07 00:07 | 17.53236 | -64.70078 | 29238 ft | 297 kts | 56° |
| 2026-05-07 00:08 | 17.54327 | -64.68242 | 29239 ft | 297 kts | 56° |
| 2026-05-07 00:08 | 17.55417 | -64.66407 | 29239 ft | 297 kts | 56° |
| 2026-05-07 00:08 | 17.56508 | -64.64570 | 29239 ft | 297 kts | 56° |
| 2026-05-07 00:08 | 17.57601 | -64.62731 | 29239 ft | 297 kts | 56° |
| 2026-05-07 00:09 | 17.58677 | -64.60919 | 29242 ft | 297 kts | 56° |
| 2026-05-07 00:09 | 17.59767 | -64.59082 | 29242 ft | 297 kts | 56° |
| 2026-05-07 00:09 | 17.60858 | -64.57243 | 29242 ft | 297 kts | 56° |
| 2026-05-07 00:09 | 17.61947 | -64.55407 | 29242 ft | 297 kts | 56° |
| 2026-05-07 00:10 | 17.63039 | -64.53565 | 29239 ft | 297 kts | 56° |
| 2026-05-07 00:10 | 17.64130 | -64.51726 | 29244 ft | 297 kts | 56° |
| 2026-05-07 00:10 | 17.65218 | -64.49891 | 29242 ft | 297 kts | 56° |
| 2026-05-07 00:10 | 17.66308 | -64.48050 | 29239 ft | 297 kts | 56° |
| 2026-05-07 00:11 | 17.67399 | -64.46209 | 29242 ft | 297 kts | 56° |
| 2026-05-07 00:11 | 17.68488 | -64.44370 | 29246 ft | 297 kts | 56° |
| 2026-05-07 00:11 | 17.69580 | -64.42525 | 29244 ft | 297 kts | 56° |
| 2026-05-07 00:11 | 17.70657 | -64.40706 | 29244 ft | 298 kts | 56° |
| 2026-05-07 00:12 | 17.71748 | -64.38861 | 29241 ft | 298 kts | 56° |
| 2026-05-07 00:12 | 17.72842 | -64.37013 | 29242 ft | 298 kts | 56° |
| 2026-05-07 00:12 | 17.73934 | -64.35166 | 29246 ft | 298 kts | 56° |
| 2026-05-07 00:12 | 17.75027 | -64.33318 | 29247 ft | 298 kts | 56° |